Airfield :
LOGIN :

Register | Disclaimer

   EN    FR    IT 

 










Legend :    VFR   Marginal VFR   IFR   Intensive IFR   Very Intensive IFR
Visi :
Ceiling :
>= 8 km
>= 3000ft
5 to 8 km
1000 to 3000 ft
1500m to 5 km
500 to 1000 ft
800 to 1500m
200 to 500 ft
< 800m
< 200 ft
Symbols :   Thunderstorms  Fog  Heavy snow  Heavy precipitations  Wind > 20 kt
SIGMETs :     Misc.  Thunderstorms  Icing  Turbulence  Mountain Waves  Volcanic Ashes






- Airport Elevation : 124 ft
- IATA code : RNS


LFRN - Rennes

CURRENT METAR :
  • 262030Z AUTO 23008KT CAVOK 09/07 Q1008 TEMPO SCT025TCU

EXPIRED METARs :
  • 262000Z AUTO 24007KT CAVOK 09/07 Q1008 TEMPO SCT025TCU
  • 261930Z AUTO 23008KT CAVOK 09/07 Q1008 TEMPO SCT025TCU
  • 261900Z AUTO 22006KT CAVOK 09/07 Q1008 TEMPO SCT025TCU
  • 261830Z AUTO 24007KT CAVOK 10/07 Q1008 TEMPO SCT025TCU
  • 261800Z AUTO 25008KT 9999 FEW032 BKN060 10/08 Q1007 TEMPO SCT025TCU

TAF TAF LFRN
Valid from the 26 at 18:00 until the 27 at 18:00 UTC


261700Z 2618/2718 26012KT 9999 SCT030
TEMPO 2618/2622 -SHRA SCT025TCU
BECMG 2700/2703 20006KT
BECMG 2703/2706 4000 RA
BECMG 2706/2709 18015G28KT 2000 RA BKN010
TEMPO 2710/2712 RADZ BKN004
BECMG 2712/2715 24012KT 9999 NSW BKN018
TEMPO 2715/2718 SHRA BKN016TCU
ATIS : +33 2 99 67 72 50



MET'MAP, your aeronautical weather chart ! - Copyright ORBIFLY December 2007 - Disclaimer

ORBIFLY MET'MAP TEAM :

Programming & Development : Alexandra Zaïnal
Concept & original design : Baudouin d'Aumeries
Assistance for programming : Marc-Olivier Méhu
Technical & hardware support : Manuel Goepfert

Contact : metmap@orbifly.com




SOURCES & CREDITS :

   NOAA